ZA-0045 weather

John Weston Airport
Kimberley, Northern Cape, South Africa

Public forecast

Using degrees Celsius for public forecast. Weather courtesy of forecast.io.

METAR (pilot weather report)

Closest report is Kimberley Airport, 6.7 nm (12.3 km) SE. Retrieved 2019/08/21 22:00 UTC (16 minutes ago):

FAKM 212200Z AUTO 35004KT //// // ////// 08/M04 Q1029

TAF (pilot weather forecast)

Forecast is more than 12 hours old.

Closest forecast is Kimberley Airport, 6.7 nm (12.3 km) SE. Retrieved 2018/10/29 07:06 UTC (10 months ago):

TAF TAF FAKM 290600Z 2907/2919 33015KT CAVOK TX38/2913Z TN28/2918Z